createdAt,value
2023-03-06T00:01:10.541Z,163.97
2023-03-06T00:03:38.860Z,126.33
2023-03-06T00:06:07.473Z,105.17
2023-03-06T00:08:37.011Z,86.30
2023-03-06T00:11:05.185Z,103.10
2023-03-06T00:13:35.141Z,114.03
2023-03-06T00:16:03.265Z,135.80
2023-03-06T00:18:31.503Z,147.27
2023-03-06T00:20:59.524Z,136.60
2023-03-06T00:23:28.715Z,119.53
2023-03-06T00:25:58.209Z,121.87
2023-03-06T00:28:26.310Z,114.30
2023-03-06T00:30:54.437Z,138.20
2023-03-06T00:33:22.460Z,124.13
2023-03-06T00:35:50.571Z,101.77
2023-03-06T00:38:18.877Z,118.60
2023-03-06T00:40:47.078Z,108.50
2023-03-06T00:43:16.537Z,130.23
2023-03-06T00:45:44.637Z,102.07
2023-03-06T00:48:12.669Z,104.77
2023-03-06T00:50:40.820Z,104.97
2023-03-06T00:53:11.304Z,93.20
2023-03-06T00:55:39.316Z,108.30
2023-03-06T00:58:07.393Z,106.20
2023-03-06T01:00:37.120Z,113.97
2023-03-06T01:03:05.607Z,110.57
2023-03-06T01:05:36.997Z,191.73
2023-03-06T01:08:06.389Z,136.30
2023-03-06T01:10:34.433Z,137.10
2023-03-06T01:13:02.569Z,129.27
2023-03-06T01:15:30.679Z,128.87
2023-03-06T01:18:00.108Z,105.47
2023-03-06T01:20:28.823Z,92.10
2023-03-06T01:22:56.925Z,123.83
2023-03-06T01:25:26.193Z,111.40
2023-03-06T01:27:54.357Z,113.60
2023-03-06T01:30:23.013Z,111.30
2023-03-06T01:32:51.079Z,95.23
2023-03-06T01:35:20.616Z,94.50
2023-03-06T01:37:49.032Z,103.10
2023-03-06T01:40:17.046Z,94.20
2023-03-06T01:42:46.789Z,88.23
2023-03-06T01:45:52.199Z,96.30
2023-03-06T01:48:23.015Z,79.17
2023-03-06T01:50:53.862Z,75.17
2023-03-06T01:53:22.476Z,68.33
2023-03-06T01:55:50.636Z,83.10
2023-03-06T01:58:20.296Z,56.20
2023-03-06T02:00:48.386Z,75.13
2023-03-06T02:03:20.218Z,77.23
2023-03-06T02:05:48.732Z,77.87
2023-03-06T02:08:20.655Z,76.20
2023-03-06T02:10:59.592Z,69.97
2023-03-06T02:13:27.883Z,66.90
2023-03-06T02:15:56.401Z,70.20
2023-03-06T02:18:24.842Z,61.47
2023-03-06T02:20:55.532Z,63.57
2023-03-06T02:23:33.005Z,65.60
2023-03-06T02:26:03.510Z,65.60
2023-03-06T02:28:31.568Z,60.27
2023-03-06T02:30:59.702Z,66.67
2023-03-06T02:33:30.173Z,66.77
2023-03-06T02:36:00.954Z,50.30
2023-03-06T02:38:32.886Z,56.60
2023-03-06T02:41:05.122Z,52.90
2023-03-06T02:43:36.107Z,67.00
2023-03-06T02:46:04.512Z,55.20
2023-03-06T02:48:32.755Z,56.33
2023-03-06T02:51:01.016Z,56.30
2023-03-06T02:53:29.169Z,50.43
2023-03-06T02:55:57.217Z,49.03
2023-03-06T02:58:26.712Z,46.87
2023-03-06T03:00:54.772Z,38.03
2023-03-06T03:03:22.891Z,50.13
2023-03-06T03:05:50.937Z,48.20
2023-03-06T03:08:19.066Z,42.87
2023-03-06T03:10:47.193Z,51.90
2023-03-06T03:13:15.244Z,38.70
2023-03-06T03:15:45.022Z,33.47
2023-03-06T03:18:13.390Z,37.93
2023-03-06T03:20:44.161Z,29.90
2023-03-06T03:23:12.231Z,39.83
2023-03-06T03:25:40.387Z,35.77
2023-03-06T03:28:08.424Z,29.53
2023-03-06T03:30:36.509Z,38.63
2023-03-06T03:33:06.304Z,35.50
2023-03-06T03:35:34.533Z,40.03
2023-03-06T03:38:02.718Z,32.27
2023-03-06T03:40:30.877Z,42.67
2023-03-06T03:42:58.912Z,36.43
2023-03-06T03:45:27.138Z,36.93
2023-03-06T03:47:55.167Z,33.43
2023-03-06T03:50:24.579Z,32.63
2023-03-06T03:52:52.604Z,27.83
2023-03-06T03:55:20.869Z,30.17
2023-03-06T03:57:49.076Z,35.43
2023-03-06T04:00:18.364Z,31.30
2023-03-06T04:02:47.078Z,37.80
2023-03-06T04:05:16.830Z,32.73
2023-03-06T04:07:46.381Z,36.33
2023-03-06T04:10:15.013Z,39.07
2023-03-06T04:12:45.897Z,44.27
2023-03-06T04:15:14.007Z,48.13
2023-03-06T04:17:42.114Z,49.57
2023-03-06T04:20:11.629Z,38.37
2023-03-06T04:22:41.117Z,41.43
2023-03-06T04:25:11.637Z,49.20
2023-03-06T04:27:39.742Z,44.33
2023-03-06T04:30:09.229Z,46.53
2023-03-06T04:32:37.728Z,42.67
2023-03-06T04:35:06.614Z,42.67
2023-03-06T04:37:34.720Z,35.27
2023-03-06T04:40:02.852Z,40.53
2023-03-06T04:42:32.539Z,41.47
2023-03-06T04:45:00.621Z,35.73
2023-03-06T04:47:28.662Z,36.83
2023-03-06T04:49:56.728Z,29.53
2023-03-06T04:52:24.735Z,25.20
2023-03-06T04:54:52.868Z,27.17
2023-03-06T04:57:20.933Z,27.77
2023-03-06T04:59:50.792Z,31.37
2023-03-06T05:02:19.444Z,31.57
2023-03-06T05:04:47.528Z,29.17
2023-03-06T05:07:15.666Z,33.80
2023-03-06T05:09:43.861Z,33.93
2023-03-06T05:12:11.930Z,36.63
2023-03-06T05:14:39.987Z,36.17
2023-03-06T05:17:09.587Z,34.87
2023-03-06T05:19:37.671Z,27.97
2023-03-06T05:22:05.915Z,35.73
2023-03-06T05:24:34.011Z,29.43
2023-03-06T05:27:02.123Z,38.47
2023-03-06T05:29:30.210Z,29.27
2023-03-06T05:31:59.010Z,30.10
2023-03-06T05:34:28.476Z,39.33
2023-03-06T05:36:56.714Z,36.43
2023-03-06T05:39:24.733Z,29.17
2023-03-06T05:41:52.777Z,31.77
2023-03-06T05:44:21.062Z,34.53
2023-03-06T05:46:50.336Z,37.47
2023-03-06T05:49:18.357Z,38.50
2023-03-06T05:51:47.760Z,31.40
2023-03-06T05:54:15.825Z,31.97
2023-03-06T05:56:43.937Z,34.63
2023-03-06T05:59:12.089Z,26.97
2023-03-06T06:01:40.152Z,41.47
2023-03-06T06:04:08.142Z,36.60
2023-03-06T06:06:36.345Z,23.53
2023-03-06T06:09:06.103Z,24.77
2023-03-06T06:11:34.140Z,19.63
2023-03-06T06:14:02.192Z,25.00
2023-03-06T06:16:30.265Z,19.13
2023-03-06T06:18:58.999Z,19.93
2023-03-06T06:21:27.048Z,23.17
2023-03-06T06:23:55.172Z,19.00
2023-03-06T06:26:24.867Z,23.63
2023-03-06T06:28:52.886Z,21.03
2023-03-06T06:31:21.135Z,19.37
2023-03-06T06:33:49.256Z,24.27
2023-03-06T06:36:18.578Z,31.37
2023-03-06T06:38:46.962Z,28.53
2023-03-06T06:41:50.731Z,35.17
2023-03-06T06:44:08.936Z,49.07
2023-03-06T06:47:20.860Z,56.23
2023-03-06T06:49:25.965Z,41.97
2023-03-06T06:51:53.976Z,45.77
2023-03-06T06:54:22.935Z,33.63
2023-03-06T06:56:50.971Z,28.10
2023-03-06T06:59:20.453Z,29.07
2023-03-06T07:01:48.493Z,24.93
2023-03-06T07:04:18.121Z,24.13
2023-03-06T07:06:47.236Z,19.30
2023-03-06T07:09:16.215Z,23.33
2023-03-06T07:11:44.331Z,26.30
2023-03-06T07:14:12.382Z,24.60
2023-03-06T07:16:41.846Z,21.63
2023-03-06T07:19:09.989Z,27.60
2023-03-06T07:21:38.108Z,22.17
2023-03-06T07:24:06.706Z,29.70
2023-03-06T07:26:35.311Z,27.87
2023-03-06T07:29:03.953Z,28.50
2023-03-06T07:31:32.034Z,23.07
2023-03-06T07:34:04.504Z,32.17
2023-03-06T07:36:33.476Z,33.60
2023-03-06T07:39:01.977Z,31.67
2023-03-06T07:41:30.104Z,61.73
2023-03-06T07:43:58.388Z,48.10
2023-03-06T07:46:27.027Z,57.23
2023-03-06T07:48:55.285Z,46.13
2023-03-06T07:51:24.729Z,54.77
2023-03-06T07:53:53.004Z,58.97
2023-03-06T07:56:21.112Z,47.43
2023-03-06T07:58:49.642Z,45.07
2023-03-06T08:01:19.792Z,52.73
2023-03-06T08:03:50.050Z,51.07
2023-03-06T08:06:20.447Z,55.43
2023-03-06T08:08:51.040Z,58.03
2023-03-06T08:11:21.934Z,53.20
2023-03-06T08:13:52.729Z,52.57
2023-03-06T08:16:22.084Z,48.90
2023-03-06T08:18:50.147Z,49.83
2023-03-06T08:21:21.447Z,43.27
2023-03-06T08:23:51.624Z,49.67
2023-03-06T08:26:21.944Z,49.17
2023-03-06T08:28:51.639Z,61.43
2023-03-06T08:31:26.932Z,51.03
2023-03-06T08:33:55.798Z,47.10
2023-03-06T08:36:23.974Z,47.70
2023-03-06T08:38:53.886Z,44.90
2023-03-06T08:41:23.375Z,51.57
2023-03-06T08:43:51.962Z,50.30
2023-03-06T08:46:21.785Z,42.43
2023-03-06T08:48:49.863Z,49.30
2023-03-06T08:51:19.278Z,39.57
2023-03-06T08:53:48.076Z,43.97
2023-03-06T08:56:20.005Z,52.33
2023-03-06T08:58:48.381Z,45.90
2023-03-06T09:01:18.325Z,46.93
2023-03-06T09:03:46.601Z,45.23
2023-03-06T09:06:15.932Z,46.07
2023-03-06T09:08:44.779Z,41.67
2023-03-06T09:11:14.208Z,32.77
2023-03-06T09:13:44.137Z,27.93
2023-03-06T09:16:13.505Z,29.20
2023-03-06T09:18:41.909Z,33.70
2023-03-06T09:21:11.136Z,35.73
2023-03-06T09:23:40.489Z,27.27
2023-03-06T09:26:09.029Z,30.93
2023-03-06T09:28:39.096Z,25.27
2023-03-06T09:31:11.766Z,27.60
2023-03-06T09:33:39.894Z,36.63
2023-03-06T09:36:16.712Z,34.57
2023-03-06T09:38:45.888Z,30.60
2023-03-06T09:41:26.624Z,27.70
2023-03-06T09:43:59.135Z,27.53
2023-03-06T09:46:40.493Z,23.77
2023-03-06T09:49:23.987Z,22.97
2023-03-06T09:52:00.953Z,29.53
2023-03-06T09:54:41.276Z,25.73
2023-03-06T09:57:19.815Z,28.53
2023-03-06T09:59:52.772Z,26.47
2023-03-06T10:02:32.177Z,24.20
2023-03-06T10:05:04.126Z,28.70
2023-03-06T10:07:44.623Z,24.30
2023-03-06T10:10:19.568Z,28.03
2023-03-06T10:12:54.841Z,26.57
2023-03-06T10:15:26.635Z,30.07
2023-03-06T10:17:58.055Z,22.27
2023-03-06T10:20:28.988Z,27.40
2023-03-06T10:23:11.057Z,21.43
2023-03-06T10:25:47.811Z,18.27
2023-03-06T10:28:19.162Z,19.50
2023-03-06T10:30:52.813Z,18.57
2023-03-06T10:33:41.044Z,23.80
2023-03-06T10:36:14.438Z,24.70
2023-03-06T10:38:43.302Z,22.83
2023-03-06T10:41:23.862Z,19.47
2023-03-06T10:44:28.499Z,20.67
2023-03-06T10:46:57.199Z,19.43
2023-03-06T10:49:33.408Z,20.00
2023-03-06T10:52:05.556Z,18.00
2023-03-06T10:54:36.178Z,19.63
2023-03-06T10:57:29.275Z,22.57
2023-03-06T10:59:58.658Z,17.47
2023-03-06T11:02:31.292Z,19.83
2023-03-06T11:05:02.281Z,18.63
2023-03-06T11:07:31.864Z,19.27
2023-03-06T11:10:18.196Z,20.93
2023-03-06T11:12:58.805Z,19.33
2023-03-06T11:15:28.134Z,17.87
2023-03-06T11:18:01.902Z,19.70
2023-03-06T11:20:50.130Z,20.70
2023-03-06T11:23:20.152Z,18.53
2023-03-06T11:25:51.561Z,18.50
2023-03-06T11:28:24.949Z,14.37
2023-03-06T11:30:56.268Z,17.73
2023-03-06T11:33:30.535Z,19.13
2023-03-06T11:36:06.713Z,14.30
2023-03-06T11:38:41.413Z,14.77
2023-03-06T11:41:20.222Z,16.17
2023-03-06T11:43:56.383Z,15.17
2023-03-06T11:46:29.491Z,14.07
2023-03-06T11:49:05.977Z,13.03
2023-03-06T11:51:41.590Z,13.13
2023-03-06T11:54:13.796Z,16.07
2023-03-06T11:56:49.401Z,13.77
2023-03-06T11:59:48.730Z,13.47
2023-03-06T12:02:29.611Z,16.67
2023-03-06T12:05:12.580Z,16.33
2023-03-06T12:07:49.422Z,15.87
2023-03-06T12:10:24.025Z,16.07
2023-03-06T12:13:27.491Z,13.67
2023-03-06T12:16:25.439Z,16.07
2023-03-06T12:19:03.474Z,16.80
2023-03-06T12:21:43.199Z,17.13
2023-03-06T12:24:30.571Z,12.70
2023-03-06T12:27:12.066Z,11.90
2023-03-06T12:29:53.938Z,13.77
2023-03-06T12:32:36.606Z,11.97
2023-03-06T12:35:16.213Z,13.07
2023-03-06T12:37:56.994Z,13.53
2023-03-06T12:40:40.787Z,14.87
2023-03-06T12:43:38.856Z,16.00
2023-03-06T12:46:13.121Z,11.77
2023-03-06T12:48:44.630Z,13.57
2023-03-06T12:51:17.769Z,13.47
2023-03-06T12:53:47.656Z,11.63
2023-03-06T12:56:19.278Z,12.97
2023-03-06T12:58:54.274Z,17.73
2023-03-06T13:01:55.582Z,13.40
2023-03-06T13:04:45.930Z,13.20
2023-03-06T13:07:34.827Z,13.60
2023-03-06T13:10:14.949Z,12.93
2023-03-06T13:12:54.271Z,13.43
2023-03-06T13:15:44.337Z,13.40
2023-03-06T13:18:58.557Z,29.27
2023-03-06T13:21:47.180Z,19.23
2023-03-06T13:24:18.501Z,17.60
2023-03-06T13:26:56.113Z,18.30
2023-03-06T13:30:14.195Z,16.87
2023-03-06T13:32:43.525Z,16.60
2023-03-06T13:35:47.555Z,16.80
2023-03-06T13:38:54.278Z,22.13
2023-03-06T13:41:58.676Z,22.50
2023-03-06T13:44:48.871Z,26.30
2023-03-06T13:47:32.379Z,19.97
2023-03-06T13:50:13.275Z,18.47
2023-03-06T13:52:54.205Z,19.47
2023-03-06T13:55:31.401Z,16.07
2023-03-06T13:58:14.956Z,14.93
2023-03-06T14:00:58.134Z,16.50
2023-03-06T14:03:56.650Z,15.70
2023-03-06T14:07:03.224Z,14.97
2023-03-06T14:09:35.444Z,14.03
2023-03-06T14:12:07.979Z,15.57
2023-03-06T14:14:43.048Z,14.13
2023-03-06T14:17:24.219Z,11.53
2023-03-06T14:19:52.787Z,14.33
2023-03-06T14:22:25.160Z,12.27
2023-03-06T14:24:57.544Z,14.37
2023-03-06T14:27:49.987Z,11.70
2023-03-06T14:30:20.990Z,11.83
2023-03-06T14:32:50.123Z,12.13
2023-03-06T14:35:27.948Z,13.73
2023-03-06T14:38:00.494Z,9.00
2023-03-06T14:40:34.687Z,9.37
2023-03-06T14:43:21.326Z,14.57
2023-03-06T14:45:55.715Z,12.37
2023-03-06T14:48:24.518Z,14.20
2023-03-06T14:50:54.636Z,13.90
2023-03-06T14:53:28.027Z,11.83
2023-03-06T14:56:00.211Z,17.87
2023-03-06T14:58:32.621Z,19.43
2023-03-06T15:01:04.749Z,23.43
2023-03-06T15:03:42.761Z,19.67
2023-03-06T15:06:16.598Z,18.47
2023-03-06T15:08:48.797Z,21.33
2023-03-06T15:11:16.852Z,24.97
2023-03-06T15:14:01.858Z,29.83
2023-03-06T15:16:31.349Z,19.53
2023-03-06T15:19:00.750Z,22.03
2023-03-06T15:21:32.705Z,23.33
2023-03-06T15:24:02.218Z,22.33
2023-03-06T15:26:33.338Z,21.13
2023-03-06T15:29:12.864Z,17.20
2023-03-06T15:31:42.675Z,20.27
2023-03-06T15:34:23.467Z,15.00
2023-03-06T15:36:55.337Z,12.37
2023-03-06T15:39:38.827Z,33.77
2023-03-06T15:42:21.230Z,23.87
2023-03-06T15:44:51.760Z,16.73
2023-03-06T15:47:20.280Z,15.63
2023-03-06T15:49:51.850Z,14.53
2023-03-06T15:52:20.165Z,15.93
2023-03-06T15:54:50.207Z,18.07
2023-03-06T15:57:23.078Z,17.43
2023-03-06T15:59:52.432Z,30.77
2023-03-06T16:02:22.673Z,23.70
2023-03-06T16:04:51.232Z,32.27
2023-03-06T16:07:19.452Z,23.67
2023-03-06T16:09:48.928Z,14.60
2023-03-06T16:12:18.384Z,17.20
2023-03-06T16:14:47.421Z,20.00
2023-03-06T16:17:16.835Z,19.87
2023-03-06T16:19:45.386Z,16.83
2023-03-06T16:22:13.825Z,13.80
2023-03-06T16:24:41.955Z,20.93
2023-03-06T16:27:18.528Z,17.73
2023-03-06T16:29:46.928Z,22.37
2023-03-06T16:32:15.430Z,15.10
2023-03-06T16:34:43.534Z,17.63
2023-03-06T16:37:13.921Z,17.80
2023-03-06T16:39:42.037Z,17.67
2023-03-06T16:42:10.083Z,18.27
2023-03-06T16:44:39.585Z,19.17
2023-03-06T16:47:11.290Z,17.23
2023-03-06T16:49:39.450Z,15.63
2023-03-06T16:52:08.557Z,17.10
2023-03-06T16:54:36.587Z,17.43
2023-03-06T16:57:04.735Z,16.30
2023-03-06T16:59:33.111Z,14.87
2023-03-06T17:02:02.492Z,19.43
2023-03-06T17:04:30.761Z,14.80
2023-03-06T17:06:58.832Z,18.83
2023-03-06T17:09:26.854Z,19.10
2023-03-06T17:11:54.949Z,22.33
2023-03-06T17:14:23.037Z,19.87
2023-03-06T17:16:51.159Z,36.30
2023-03-06T17:19:20.518Z,32.80
2023-03-06T17:21:48.690Z,26.03
2023-03-06T17:24:16.865Z,27.63
2023-03-06T17:26:47.135Z,26.47
2023-03-06T17:29:15.477Z,21.43
2023-03-06T17:31:43.459Z,22.77
2023-03-06T17:34:11.581Z,20.80
2023-03-06T17:36:40.909Z,160.90
2023-03-06T17:39:08.934Z,70.23
2023-03-06T17:41:36.961Z,85.67
2023-03-06T17:44:05.469Z,52.07
2023-03-06T17:46:34.703Z,34.00
2023-03-06T17:49:02.732Z,25.17
2023-03-06T17:51:30.811Z,28.70
2023-03-06T17:54:00.396Z,33.57
2023-03-06T17:56:28.825Z,30.13
2023-03-06T17:58:57.705Z,34.30
2023-03-06T18:01:27.464Z,32.30
2023-03-06T18:03:56.103Z,27.83
2023-03-06T18:06:26.155Z,28.53
2023-03-06T18:08:54.436Z,27.83
2023-03-06T18:11:24.571Z,32.53
2023-03-06T18:13:53.017Z,34.77
2023-03-06T18:16:23.682Z,28.07
2023-03-06T18:18:53.404Z,22.70
2023-03-06T18:21:22.582Z,29.67
2023-03-06T18:23:50.735Z,33.63
2023-03-06T18:26:21.288Z,27.40
2023-03-06T18:28:54.248Z,34.97
2023-03-06T18:31:24.533Z,24.63
2023-03-06T18:33:53.800Z,37.80
2023-03-06T18:36:23.982Z,55.10
2023-03-06T18:38:52.601Z,50.13
2023-03-06T18:41:22.324Z,46.33
2023-03-06T18:43:55.430Z,52.53
2023-03-06T18:46:24.422Z,45.73
2023-03-06T18:48:52.606Z,37.60
2023-03-06T18:51:20.700Z,71.90
2023-03-06T18:53:48.990Z,53.07
2023-03-06T18:56:18.980Z,58.20
2023-03-06T18:58:47.700Z,67.77
2023-03-06T19:01:17.561Z,77.70
2023-03-06T19:03:46.014Z,68.77
2023-03-06T19:06:16.945Z,84.97
2023-03-06T19:08:45.887Z,74.13
2023-03-06T19:11:16.332Z,68.53
2023-03-06T19:13:45.132Z,72.03
2023-03-06T19:16:20.462Z,59.97
2023-03-06T19:18:48.800Z,60.77
2023-03-06T19:21:19.694Z,55.00
2023-03-06T19:23:48.011Z,65.37
2023-03-06T19:26:18.653Z,68.17
2023-03-06T19:28:47.575Z,78.40
2023-03-06T19:31:19.504Z,100.27
2023-03-06T19:33:50.282Z,129.80
2023-03-06T19:36:19.115Z,85.20
2023-03-06T19:38:50.343Z,87.97
2023-03-06T19:41:18.602Z,78.53
2023-03-06T19:43:52.241Z,75.27
2023-03-06T19:46:21.160Z,60.37
2023-03-06T19:48:56.163Z,64.37
2023-03-06T19:51:24.588Z,48.83
2023-03-06T19:53:52.778Z,53.47
2023-03-06T19:56:22.341Z,57.83
2023-03-06T19:58:50.522Z,78.97
2023-03-06T20:01:20.428Z,78.83
2023-03-06T20:03:50.641Z,68.03
2023-03-06T20:06:20.523Z,52.30
2023-03-06T20:08:49.353Z,63.40
2023-03-06T20:11:18.625Z,55.83
2023-03-06T20:13:47.889Z,51.63
2023-03-06T20:16:16.486Z,78.93
2023-03-06T20:18:45.466Z,69.87
2023-03-06T20:21:15.556Z,60.97
2023-03-06T20:23:43.850Z,54.73
2023-03-06T20:26:14.429Z,52.47
2023-03-06T20:28:43.693Z,53.10
2023-03-06T20:31:13.930Z,55.37
2023-03-06T20:33:41.939Z,67.43
2023-03-06T20:36:16.054Z,73.77
2023-03-06T20:38:44.185Z,70.33
2023-03-06T20:41:15.657Z,70.60
2023-03-06T20:43:43.929Z,70.40
2023-03-06T20:46:13.445Z,71.93
2023-03-06T20:48:42.263Z,77.13
2023-03-06T20:51:17.659Z,95.57
2023-03-06T20:53:46.830Z,89.37
2023-03-06T20:56:15.521Z,86.70
2023-03-06T20:58:43.969Z,94.60
2023-03-06T21:01:20.108Z,95.37
2023-03-06T21:03:48.744Z,89.50
2023-03-06T21:06:18.427Z,94.50
2023-03-06T21:08:46.696Z,114.47
2023-03-06T21:11:15.308Z,111.50
2023-03-06T21:13:43.320Z,106.33
2023-03-06T21:16:13.608Z,111.97
2023-03-06T21:18:41.778Z,106.07
2023-03-06T21:21:11.849Z,126.10
2023-03-06T21:23:41.403Z,161.77
2023-03-06T21:26:13.899Z,203.43
2023-03-06T21:28:42.098Z,215.43
2023-03-06T21:31:12.397Z,208.87
2023-03-06T21:33:41.112Z,178.93
2023-03-06T21:36:09.691Z,169.50
2023-03-06T21:38:37.978Z,160.87
2023-03-06T21:41:11.788Z,154.07
2023-03-06T21:43:40.153Z,152.10
2023-03-06T21:46:08.733Z,154.57
2023-03-06T21:48:36.877Z,166.70
2023-03-06T21:51:07.240Z,164.97
2023-03-06T21:53:41.278Z,139.70
2023-03-06T21:56:11.636Z,146.97
2023-03-06T21:58:39.779Z,145.40
2023-03-06T22:01:11.490Z,150.27
2023-03-06T22:03:39.875Z,140.17
2023-03-06T22:06:09.551Z,139.90
2023-03-06T22:08:37.532Z,137.93
2023-03-06T22:11:12.249Z,122.70
2023-03-06T22:13:40.389Z,124.37
2023-03-06T22:16:09.006Z,119.33
2023-03-06T22:18:37.647Z,113.83
2023-03-06T22:21:09.551Z,115.53
2023-03-06T22:23:37.810Z,118.43
2023-03-06T22:26:07.633Z,121.00
2023-03-06T22:28:37.116Z,117.33
2023-03-06T22:31:07.445Z,112.47
2023-03-06T22:33:35.505Z,112.80
2023-03-06T22:36:06.302Z,104.57
2023-03-06T22:38:35.116Z,104.23
2023-03-06T22:41:03.327Z,95.93
2023-03-06T22:43:34.005Z,97.30
2023-03-06T22:46:04.704Z,104.53
2023-03-06T22:48:34.138Z,93.93
2023-03-06T22:51:05.874Z,93.53
2023-03-06T22:53:34.725Z,93.93
2023-03-06T22:56:04.664Z,105.00
2023-03-06T22:58:37.194Z,78.47
2023-03-06T23:01:08.630Z,93.90
2023-03-06T23:03:37.634Z,82.97
2023-03-06T23:06:09.932Z,80.00
2023-03-06T23:08:38.668Z,81.37
2023-03-06T23:11:10.285Z,74.70
2023-03-06T23:13:38.806Z,65.47
2023-03-06T23:16:10.009Z,80.17
2023-03-06T23:18:39.058Z,83.93
2023-03-06T23:21:08.855Z,98.10
2023-03-06T23:23:37.028Z,84.93
2023-03-06T23:26:05.316Z,78.80
2023-03-06T23:28:33.517Z,74.47
2023-03-06T23:31:01.858Z,85.47
2023-03-06T23:33:31.323Z,87.30
2023-03-06T23:36:03.303Z,99.60
2023-03-06T23:38:31.822Z,112.90
2023-03-06T23:41:02.981Z,95.03
2023-03-06T23:43:31.636Z,93.90
2023-03-06T23:46:00.034Z,98.83
2023-03-06T23:48:29.931Z,99.60
2023-03-06T23:50:58.333Z,97.77
2023-03-06T23:53:26.490Z,99.73
2023-03-06T23:55:54.819Z,92.43
2023-03-06T23:58:22.838Z,99.63
